createdAt,value
2018-11-22T00:00:43.258Z,4.64
2018-11-22T00:01:43.237Z,4.63
2018-11-22T00:02:43.239Z,4.64
2018-11-22T00:03:43.250Z,4.79
2018-11-22T00:04:43.355Z,4.7
2018-11-22T00:05:43.226Z,4.7
2018-11-22T00:06:43.339Z,4.61
2018-11-22T00:07:43.260Z,4.61
2018-11-22T00:08:43.339Z,4.6
2018-11-22T00:09:43.226Z,4.6
2018-11-22T00:10:43.292Z,4.61
2018-11-22T00:11:43.248Z,4.52
2018-11-22T00:12:43.268Z,4.58
2018-11-22T00:13:43.281Z,4.57
2018-11-22T00:14:43.249Z,4.58
2018-11-22T00:15:43.324Z,4.56
2018-11-22T00:16:43.310Z,4.57
2018-11-22T00:17:43.304Z,4.52
2018-11-22T00:18:43.365Z,4.53
2018-11-22T00:19:43.248Z,4.5
2018-11-22T00:20:43.318Z,4.6
2018-11-22T00:21:43.325Z,4.52
2018-11-22T00:22:43.303Z,4.46
2018-11-22T00:23:45.019Z,4.52
2018-11-22T00:24:43.311Z,4.46
2018-11-22T00:25:43.321Z,4.45
2018-11-22T00:26:43.297Z,4.5
2018-11-22T00:34:09.317Z,4.5
2018-11-22T00:34:45.737Z,4.49
2018-11-22T00:35:45.668Z,4.53
2018-11-22T00:36:45.784Z,4.52
2018-11-22T00:37:45.685Z,4.53
2018-11-22T00:38:45.730Z,4.43
2018-11-22T00:39:45.667Z,4.45
2018-11-22T00:40:45.808Z,4.48
2018-11-22T00:41:45.606Z,4.43
2018-11-22T00:42:45.758Z,4.45
2018-11-22T00:43:45.695Z,4.49
2018-11-22T00:44:45.802Z,4.48
2018-11-22T00:45:45.711Z,4.48
2018-11-22T00:46:45.764Z,4.45
2018-11-22T00:47:45.718Z,4.39
2018-11-22T00:48:45.757Z,4.52
2018-11-22T00:49:45.869Z,4.45
2018-11-22T00:50:45.778Z,4.52
2018-11-22T00:51:45.714Z,4.43
2018-11-22T00:52:45.724Z,4.48
2018-11-22T00:53:45.669Z,4.46
2018-11-22T00:54:45.663Z,4.46
2018-11-22T00:55:45.744Z,4.43
2018-11-22T00:56:45.744Z,4.49
2018-11-22T00:57:45.711Z,4.45
2018-11-22T00:58:45.760Z,4.48
2018-11-22T00:59:45.830Z,4.46
2018-11-22T01:00:45.772Z,4.52
2018-11-22T01:01:45.654Z,4.5
2018-11-22T01:02:45.683Z,4.5
2018-11-22T01:03:45.652Z,4.49
2018-11-22T01:04:45.759Z,4.5
2018-11-22T01:05:45.652Z,4.46
2018-11-22T01:06:45.851Z,4.45
2018-11-22T01:07:45.678Z,4.57
2018-11-22T01:08:45.764Z,4.52
2018-11-22T01:09:45.690Z,4.53
2018-11-22T01:10:45.799Z,4.45
2018-11-22T01:11:45.691Z,4.48
2018-11-22T01:17:03.921Z,4.4
2018-11-22T01:17:16.046Z,4.45
2018-11-22T01:18:16.055Z,4.43
2018-11-22T01:19:16.019Z,4.4
2018-11-22T01:20:16.111Z,4.5
2018-11-22T01:21:16.042Z,4.38
2018-11-22T01:22:16.047Z,4.46
2018-11-22T01:23:15.992Z,4.45
2018-11-22T01:24:16.029Z,4.49
2018-11-22T01:25:16.036Z,4.45
2018-11-22T01:26:16.043Z,4.46
2018-11-22T01:27:16.050Z,4.42
2018-11-22T01:28:16.035Z,4.48
2018-11-22T01:29:16.024Z,4.45
2018-11-22T01:30:16.032Z,4.4
2018-11-22T01:31:16.025Z,4.46
2018-11-22T01:32:16.073Z,4.45
2018-11-22T01:33:16.061Z,4.43
2018-11-22T01:34:16.100Z,4.39
2018-11-22T01:35:16.071Z,4.5
2018-11-22T01:36:16.116Z,4.48
2018-11-22T01:37:16.076Z,4.49
2018-11-22T01:38:16.036Z,4.46
2018-11-22T01:39:16.032Z,4.48
2018-11-22T01:40:16.065Z,4.49
2018-11-22T01:41:16.057Z,4.52
2018-11-22T01:42:16.047Z,4.5
2018-11-22T01:43:16.043Z,4.45
2018-11-22T01:44:16.070Z,4.5
2018-11-22T01:45:16.072Z,4.58
2018-11-22T01:46:16.077Z,4.43
2018-11-22T01:47:16.040Z,4.43
2018-11-22T01:48:16.154Z,4.46
2018-11-22T01:49:16.056Z,4.49
2018-11-22T01:50:16.077Z,4.49
2018-11-22T01:51:16.160Z,4.53
2018-11-22T01:52:16.043Z,4.46
2018-11-22T01:53:16.026Z,4.46
2018-11-22T01:54:16.058Z,4.49
2018-11-22T01:55:16.052Z,4.45
2018-11-22T01:56:16.037Z,4.5
2018-11-22T01:57:16.044Z,4.56
2018-11-22T01:58:16.063Z,4.43
2018-11-22T01:59:16.088Z,4.43
2018-11-22T02:00:16.142Z,4.52
2018-11-22T02:01:16.071Z,4.45
2018-11-22T02:02:16.179Z,4.53
2018-11-22T02:03:16.083Z,4.53
2018-11-22T02:04:16.056Z,4.48
2018-11-22T02:05:16.087Z,4.53
2018-11-22T02:06:16.135Z,4.48
2018-11-22T02:07:16.073Z,4.5
2018-11-22T02:08:16.149Z,4.49
2018-11-22T02:09:16.083Z,4.45
2018-11-22T02:10:16.091Z,4.52
2018-11-22T02:11:16.137Z,4.52
2018-11-22T02:12:16.103Z,4.57
2018-11-22T02:13:16.106Z,4.52
2018-11-22T02:14:16.117Z,4.49
2018-11-22T02:15:16.097Z,4.5
2018-11-22T02:16:16.100Z,4.5
2018-11-22T02:28:07.578Z,4.45
2018-11-22T02:28:19.658Z,4.48
2018-11-22T02:29:19.700Z,4.45
2018-11-22T02:30:19.779Z,4.48
2018-11-22T02:31:19.658Z,4.46
2018-11-22T02:32:19.963Z,4.43
2018-11-22T02:33:19.660Z,4.42
2018-11-22T02:34:19.679Z,4.42
2018-11-22T02:35:19.663Z,4.39
2018-11-22T02:36:19.766Z,4.34
2018-11-22T02:37:19.655Z,4.34
2018-11-22T02:38:19.728Z,4.42
2018-11-22T02:39:19.651Z,4.39
2018-11-22T02:40:19.748Z,4.31
2018-11-22T02:41:19.615Z,4.27
2018-11-22T02:42:19.689Z,4.38
2018-11-22T02:43:19.730Z,4.34
2018-11-22T02:44:19.699Z,4.31
2018-11-22T02:45:19.702Z,4.34
2018-11-22T02:46:19.652Z,4.24
2018-11-22T02:47:19.672Z,4.38
2018-11-22T02:48:19.670Z,4.3
2018-11-22T02:49:19.668Z,4.4
2018-11-22T02:50:19.699Z,4.28
2018-11-22T02:51:19.680Z,4.27
2018-11-22T02:52:19.849Z,4.34
2018-11-22T02:53:19.690Z,4.36
2018-11-22T02:54:19.676Z,4.38
2018-11-22T02:55:19.724Z,4.31
2018-11-22T02:56:19.674Z,4.32
2018-11-22T02:57:19.650Z,4.38
2018-11-22T02:58:19.764Z,4.31
2018-11-22T02:59:19.728Z,4.38
2018-11-22T03:00:19.769Z,4.31
2018-11-22T03:01:19.708Z,4.34
2018-11-22T03:02:20.021Z,4.25
2018-11-22T03:03:19.720Z,4.38
2018-11-22T03:04:19.764Z,4.27
2018-11-22T03:05:19.779Z,4.36
2018-11-22T03:06:19.736Z,4.25
2018-11-22T03:07:19.710Z,4.32
2018-11-22T03:08:19.719Z,4.3
2018-11-22T03:09:19.757Z,4.24
2018-11-22T03:10:19.767Z,4.28
2018-11-22T03:11:19.769Z,4.28
2018-11-22T03:12:19.777Z,4.28
2018-11-22T03:13:19.752Z,4.32
2018-11-22T03:14:19.727Z,4.3
2018-11-22T03:15:19.779Z,4.22
2018-11-22T03:16:19.773Z,4.27
2018-11-22T03:17:19.749Z,4.24
2018-11-22T03:18:19.755Z,4.34
2018-11-22T03:19:19.762Z,4.32
2018-11-22T03:20:19.768Z,4.28
2018-11-22T03:21:19.774Z,4.25
2018-11-22T03:22:19.784Z,4.25
2018-11-22T03:23:19.790Z,4.25
2018-11-22T03:24:19.795Z,4.32
2018-11-22T03:25:19.865Z,4.34
2018-11-22T03:26:19.737Z,4.3
2018-11-22T03:27:19.780Z,4.36
2018-11-22T03:28:19.719Z,4.24
2018-11-22T03:29:19.829Z,4.24
2018-11-22T03:30:19.795Z,4.38
2018-11-22T03:31:19.769Z,4.31
2018-11-22T03:32:19.812Z,4.24
2018-11-22T03:33:19.782Z,4.3
2018-11-22T03:34:19.768Z,4.38
2018-11-22T03:35:19.798Z,4.3
2018-11-22T03:36:19.807Z,4.27
2018-11-22T03:37:19.778Z,4.25
2018-11-22T03:38:19.788Z,4.36
2018-11-22T03:39:19.754Z,4.31
2018-11-22T03:40:19.756Z,4.32
2018-11-22T03:41:19.768Z,4.36
2018-11-22T03:42:19.770Z,4.24
2018-11-22T03:43:19.780Z,4.14
2018-11-22T03:44:19.690Z,4.27
2018-11-22T03:45:19.776Z,4.18
2018-11-22T03:46:19.723Z,4.13
2018-11-22T03:47:19.785Z,4.28
2018-11-22T03:48:19.735Z,4.21
2018-11-22T03:49:19.774Z,4.31
2018-11-22T03:50:19.863Z,4.22
2018-11-22T03:51:19.766Z,4.34
2018-11-22T03:52:19.876Z,4.31
2018-11-22T03:53:19.711Z,4.3
2018-11-22T03:58:39.403Z,4.28
2018-11-22T03:58:51.476Z,4.36
2018-11-22T03:59:51.460Z,4.34
2018-11-22T04:00:51.469Z,4.13
2018-11-22T04:01:51.477Z,4.3
2018-11-22T04:02:51.401Z,4.27
2018-11-22T04:03:51.489Z,4.28
2018-11-22T04:04:51.435Z,4.32
2018-11-22T04:05:51.419Z,4.22
2018-11-22T04:06:51.438Z,4.22
2018-11-22T04:07:52.961Z,4.16
2018-11-22T04:08:51.449Z,4.28
2018-11-22T04:09:51.484Z,4.34
2018-11-22T04:10:51.537Z,4.38
2018-11-22T04:11:51.504Z,4.34
2018-11-22T04:12:51.507Z,4.32
2018-11-22T04:18:08.804Z,4.2
2018-11-22T04:18:20.872Z,4.18
2018-11-22T04:19:20.914Z,4.1
2018-11-22T04:20:20.844Z,4.16
2018-11-22T04:21:20.850Z,4.22
2018-11-22T04:22:20.923Z,4.21
2018-11-22T04:23:20.862Z,4.13
2018-11-22T04:24:20.937Z,4.25
2018-11-22T04:25:20.914Z,4.2
2018-11-22T04:26:24.073Z,4.16
2018-11-22T04:27:21.502Z,4.3
2018-11-22T04:28:20.936Z,4.2
2018-11-22T04:29:20.941Z,4.2
2018-11-22T04:30:20.857Z,4.25
2018-11-22T04:31:20.893Z,4.2
2018-11-22T04:32:20.922Z,4.24
2018-11-22T04:33:20.896Z,4.21
2018-11-22T04:34:20.903Z,4.27
2018-11-22T04:35:20.955Z,4.24
2018-11-22T04:36:20.885Z,4.34
2018-11-22T04:37:20.924Z,4.18
2018-11-22T04:38:20.916Z,4.25
2018-11-22T04:39:20.935Z,4.31
2018-11-22T04:40:20.900Z,4.32
2018-11-22T04:41:20.983Z,4.28
2018-11-22T04:42:20.988Z,4.31
2018-11-22T04:43:20.961Z,4.28
2018-11-22T04:44:21.000Z,4.24
2018-11-22T04:45:20.979Z,4.25
2018-11-22T04:46:20.913Z,4.34
2018-11-22T04:47:20.941Z,4.28
2018-11-22T04:48:20.997Z,4.24
2018-11-22T04:49:20.931Z,4.27
2018-11-22T04:50:20.976Z,4.25
2018-11-22T04:51:20.956Z,4.22
2018-11-22T04:52:20.949Z,4.21
2018-11-22T04:53:20.974Z,4.22
2018-11-22T04:54:20.963Z,4.32
2018-11-22T04:55:20.972Z,4.28
2018-11-22T04:56:21.016Z,4.24
2018-11-22T04:57:20.921Z,4.34
2018-11-22T04:58:20.926Z,4.3
2018-11-22T04:59:20.996Z,4.31
2018-11-22T05:00:20.982Z,4.36
2018-11-22T05:01:20.980Z,4.36
2018-11-22T05:02:20.990Z,4.31
2018-11-22T05:03:20.959Z,4.31
2018-11-22T05:04:20.966Z,4.22
2018-11-22T05:05:21.012Z,4.09
2018-11-22T05:06:20.940Z,4.18
2018-11-22T05:07:21.018Z,4.18
2018-11-22T05:08:20.993Z,4.25
2018-11-22T05:09:21.067Z,4.22
2018-11-22T05:10:21.043Z,4.24
2018-11-22T05:11:20.945Z,4.25
2018-11-22T05:12:20.989Z,4.24
2018-11-22T05:13:21.029Z,4.28
2018-11-22T05:14:21.033Z,4.31
2018-11-22T05:15:20.971Z,4.27
2018-11-22T05:16:21.004Z,4.27
2018-11-22T05:17:22.835Z,4.14
2018-11-22T05:18:21.018Z,4.24
2018-11-22T05:19:20.963Z,4.21
2018-11-22T05:20:21.003Z,4.13
2018-11-22T05:21:21.046Z,4.38
2018-11-22T05:22:20.954Z,4.22
2018-11-22T05:23:21.333Z,4.21
2018-11-22T05:24:21.003Z,4.2
2018-11-22T05:25:21.045Z,4.14
2018-11-22T05:26:21.009Z,4.21
2018-11-22T05:27:21.050Z,4.27
2018-11-22T05:28:21.058Z,4.24
2018-11-22T05:29:20.989Z,4.22
2018-11-22T05:30:20.997Z,4.3
2018-11-22T05:31:20.976Z,4.27
2018-11-22T05:32:21.157Z,4.22
2018-11-22T05:33:21.016Z,4.27
2018-11-22T05:34:20.998Z,4.28
2018-11-22T05:35:20.966Z,4.25
2018-11-22T05:36:20.985Z,4.28
2018-11-22T05:37:21.042Z,4.27
2018-11-22T05:38:21.018Z,4.16
2018-11-22T05:39:21.033Z,4.25
2018-11-22T05:40:21.010Z,4.2
2018-11-22T05:41:21.039Z,4.3
2018-11-22T05:42:21.013Z,4.25
2018-11-22T05:49:48.975Z,4.14
2018-11-22T05:50:01.057Z,4.24
2018-11-22T05:51:01.072Z,4.16
2018-11-22T05:52:01.041Z,4.2
2018-11-22T05:53:17.738Z,4.27
2018-11-22T05:54:17.677Z,4.36
2018-11-22T05:55:17.720Z,4.31
2018-11-22T05:56:17.734Z,4.32
2018-11-22T05:57:17.747Z,4.27
2018-11-22T05:58:17.741Z,4.27
2018-11-22T05:59:17.707Z,4.28
2018-11-22T06:00:17.770Z,4.32
2018-11-22T06:01:17.875Z,4.32
2018-11-22T06:02:17.820Z,4.27
2018-11-22T06:03:17.775Z,4.38
2018-11-22T06:04:17.709Z,4.31
2018-11-22T06:05:17.729Z,4.36
2018-11-22T06:06:17.723Z,4.31
2018-11-22T06:07:17.698Z,4.24
2018-11-22T06:08:17.812Z,4.3
2018-11-22T06:09:17.744Z,4.34
2018-11-22T06:10:17.717Z,4.32
2018-11-22T06:11:17.727Z,4.31
2018-11-22T06:12:17.792Z,4.24
2018-11-22T06:13:17.773Z,4.28
2018-11-22T06:14:17.745Z,4.24
2018-11-22T06:15:17.690Z,4.31
2018-11-22T06:16:17.825Z,4.25
2018-11-22T06:17:17.728Z,4.39
2018-11-22T06:18:18.559Z,4.32
2018-11-22T06:19:17.763Z,4.32
2018-11-22T06:20:17.739Z,4.43
2018-11-22T06:21:17.718Z,4.32
2018-11-22T06:22:17.721Z,4.38
2018-11-22T06:23:18.414Z,4.36
2018-11-22T06:24:17.736Z,4.28
2018-11-22T06:25:18.429Z,4.28
2018-11-22T06:26:17.718Z,4.36
2018-11-22T06:27:17.788Z,4.32
2018-11-22T06:28:18.000Z,4.32
2018-11-22T06:29:17.803Z,4.36
2018-11-22T06:30:18.499Z,4.36
2018-11-22T06:31:17.741Z,4.36
2018-11-22T06:32:17.791Z,4.38
2018-11-22T06:33:20.768Z,4.34
2018-11-22T06:34:17.741Z,4.31
2018-11-22T06:35:17.779Z,4.34
2018-11-22T06:36:17.767Z,4.24
2018-11-22T06:37:17.752Z,4.3
2018-11-22T06:38:17.808Z,4.34
2018-11-22T06:39:17.805Z,4.3
2018-11-22T06:40:17.744Z,4.4
2018-11-22T06:41:17.778Z,4.36
2018-11-22T06:42:17.754Z,4.32
2018-11-22T06:43:17.830Z,4.38
2018-11-22T06:44:17.723Z,4.36
2018-11-22T06:45:17.713Z,4.43
2018-11-22T06:46:17.726Z,4.43
2018-11-22T06:47:17.719Z,4.4
2018-11-22T06:48:17.865Z,4.5
2018-11-22T06:49:17.730Z,4.45
2018-11-22T06:50:17.709Z,4.52
2018-11-22T06:51:17.698Z,4.45
2018-11-22T06:52:17.746Z,4.45
2018-11-22T06:53:17.794Z,4.5
2018-11-22T06:54:17.749Z,4.5
2018-11-22T06:55:17.735Z,4.48
2018-11-22T07:00:35.094Z,4.5
2018-11-22T07:00:47.434Z,4.49
2018-11-22T07:01:47.346Z,4.48
2018-11-22T07:02:47.364Z,4.5
2018-11-22T07:03:47.383Z,4.63
2018-11-22T07:04:47.461Z,4.45
2018-11-22T07:05:47.474Z,4.52
2018-11-22T07:06:47.507Z,4.4
2018-11-22T07:07:47.488Z,4.45
2018-11-22T07:08:47.487Z,4.48
2018-11-22T07:09:47.502Z,4.34
2018-11-22T07:10:47.503Z,4.38
2018-11-22T07:11:47.538Z,4.42
2018-11-22T07:12:47.530Z,4.43
2018-11-22T07:13:47.486Z,4.4
2018-11-22T07:14:47.491Z,4.38
2018-11-22T07:15:47.497Z,4.36
2018-11-22T07:16:47.438Z,4.31
2018-11-22T07:17:47.509Z,4.38
2018-11-22T07:18:47.795Z,4.38
2018-11-22T07:19:47.491Z,4.38
2018-11-22T07:20:47.539Z,4.32
2018-11-22T07:21:47.509Z,4.36
2018-11-22T07:24:07.452Z,4.39
2018-11-22T07:25:07.118Z,4.4
2018-11-22T07:26:07.136Z,4.38
2018-11-22T07:27:07.024Z,4.3
2018-11-22T07:28:07.100Z,4.31
2018-11-22T07:29:07.043Z,4.31
2018-11-22T07:30:07.220Z,4.24
2018-11-22T07:31:07.051Z,4.21
2018-11-22T07:32:07.161Z,4.28
2018-11-22T07:33:07.064Z,4.28
2018-11-22T07:34:07.111Z,4.24
2018-11-22T07:35:07.081Z,4.24
2018-11-22T07:36:07.124Z,4.32
2018-11-22T07:37:09.018Z,4.31
2018-11-22T07:38:07.169Z,4.31
2018-11-22T07:39:10.008Z,4.32
2018-11-22T07:40:07.465Z,4.32
2018-11-22T07:41:20.922Z,4.38
2018-11-22T07:42:07.091Z,4.36
2018-11-22T07:43:07.199Z,4.28
2018-11-22T07:44:07.180Z,4.4
2018-11-22T07:45:07.109Z,4.38
2018-11-22T07:46:07.149Z,4.36
2018-11-22T07:47:07.195Z,4.45
2018-11-22T07:49:11.619Z,4.36
2018-11-22T07:49:23.760Z,4.45
2018-11-22T07:50:23.774Z,4.39
2018-11-22T07:51:23.771Z,4.38
2018-11-22T07:54:31.087Z,4.45
2018-11-22T07:54:43.592Z,4.43
2018-11-22T07:55:43.326Z,4.43
2018-11-22T07:56:43.362Z,4.53
2018-11-22T07:57:43.275Z,4.53
2018-11-22T07:58:43.312Z,4.57
2018-11-22T07:59:43.291Z,4.57
2018-11-22T08:00:43.363Z,4.45
2018-11-22T08:01:43.395Z,4.46
2018-11-22T08:02:43.371Z,4.58
2018-11-22T08:03:43.346Z,4.52
2018-11-22T08:04:43.315Z,4.63
2018-11-22T08:05:43.365Z,4.6
2018-11-22T08:06:43.326Z,4.64
2018-11-22T08:07:43.331Z,4.68
2018-11-22T08:08:43.341Z,4.64
2018-11-22T08:09:43.344Z,4.76
2018-11-22T08:10:43.328Z,4.71
2018-11-22T08:11:43.295Z,4.64
2018-11-22T08:12:43.516Z,4.7
2018-11-22T08:13:43.342Z,4.64
2018-11-22T08:14:43.386Z,4.66
2018-11-22T08:15:43.355Z,4.6
2018-11-22T08:16:43.329Z,4.67
2018-11-22T08:17:43.368Z,4.66
2018-11-22T08:18:43.345Z,4.66
2018-11-22T08:19:43.310Z,4.66
2018-11-22T08:20:43.334Z,4.7
2018-11-22T08:21:43.436Z,4.76
2018-11-22T08:22:43.371Z,4.63
2018-11-22T08:23:43.921Z,4.68
2018-11-22T08:24:43.345Z,4.56
2018-11-22T08:25:43.320Z,4.63
2018-11-22T08:26:43.330Z,4.7
2018-11-22T08:27:43.367Z,4.78
2018-11-22T08:28:43.374Z,4.64
2018-11-22T08:29:43.377Z,4.66
2018-11-22T08:30:43.323Z,4.64
2018-11-22T08:31:43.328Z,4.68
2018-11-22T08:32:43.368Z,4.67
2018-11-22T08:33:43.347Z,4.76
2018-11-22T08:34:43.379Z,4.87
2018-11-22T08:35:43.389Z,4.83
2018-11-22T08:36:43.395Z,4.84
2018-11-22T08:37:43.406Z,4.9
2018-11-22T08:38:43.379Z,4.87
2018-11-22T08:39:43.383Z,4.97
2018-11-22T08:40:43.389Z,4.83
2018-11-22T08:41:43.396Z,4.9
2018-11-22T08:42:43.366Z,4.92
2018-11-22T08:43:43.371Z,5.02
2018-11-22T08:44:43.415Z,4.95
2018-11-22T08:45:43.389Z,4.97
2018-11-22T08:46:43.393Z,5.07
2018-11-22T08:47:43.402Z,5.04
2018-11-22T08:48:43.409Z,5.02
2018-11-22T08:49:43.378Z,5.18
2018-11-22T08:50:43.387Z,5.13
2018-11-22T08:51:43.425Z,5.08
2018-11-22T08:52:43.430Z,5.1
2018-11-22T08:53:43.526Z,5.12
2018-11-22T08:54:43.411Z,5.18
2018-11-22T08:55:43.388Z,5.16
2018-11-22T08:56:43.425Z,5.1
2018-11-22T08:57:43.401Z,5.12
2018-11-22T08:58:43.376Z,5.1
2018-11-22T08:59:43.415Z,5.16
2018-11-22T09:00:43.587Z,5.13
2018-11-22T09:01:43.460Z,5.1
2018-11-22T09:02:45.397Z,5.15
2018-11-22T09:03:43.408Z,5.04
2018-11-22T09:04:43.376Z,5.07
2018-11-22T09:05:43.353Z,5.05
2018-11-22T09:06:43.421Z,5.02
2018-11-22T09:07:43.396Z,5.05
2018-11-22T09:08:43.404Z,5.12
2018-11-22T09:09:43.379Z,5.15
2018-11-22T09:10:43.386Z,5.16
2018-11-22T09:11:43.426Z,5.23
2018-11-22T09:12:43.840Z,5.18
2018-11-22T09:13:43.442Z,5.15
2018-11-22T09:14:43.620Z,5.15
2018-11-22T09:15:43.437Z,5.1
2018-11-22T09:16:43.427Z,5.15
2018-11-22T09:17:45.787Z,5.1
2018-11-22T09:18:43.510Z,5.15
2018-11-22T09:19:44.366Z,5.22
2018-11-22T09:20:43.484Z,5.16
2018-11-22T09:21:43.427Z,5.25
2018-11-22T09:22:43.370Z,5.12
2018-11-22T09:23:44.323Z,5.2
2018-11-22T09:24:43.439Z,5.13
2018-11-22T09:25:44.195Z,5.22
2018-11-22T09:26:43.455Z,5.12
2018-11-22T09:27:43.469Z,5.2
2018-11-22T09:28:43.469Z,5.2
2018-11-22T09:29:45.388Z,5.18
2018-11-22T09:30:43.449Z,5.2
2018-11-22T09:31:43.493Z,5.16
2018-11-22T09:32:45.509Z,5.22
2018-11-22T09:34:43.476Z,5.29
2018-11-22T09:35:43.429Z,5.19
2018-11-22T09:36:43.420Z,5.22
2018-11-22T09:37:43.424Z,5.23
2018-11-22T09:38:43.434Z,5.23
2018-11-22T09:39:43.477Z,5.22
2018-11-22T09:40:43.448Z,5.2
2018-11-22T09:41:43.452Z,5.2
2018-11-22T09:42:43.463Z,5.25
2018-11-22T09:43:43.468Z,5.33
2018-11-22T09:44:43.471Z,5.34
2018-11-22T09:45:43.479Z,5.36
2018-11-22T09:46:43.451Z,5.28
2018-11-22T09:47:43.493Z,5.31
2018-11-22T09:48:43.684Z,5.36
2018-11-22T09:49:43.475Z,5.33
2018-11-22T09:50:44.842Z,5.4
2018-11-22T09:51:43.604Z,5.36
2018-11-22T09:52:43.460Z,5.44
2018-11-22T09:53:43.505Z,5.4
2018-11-22T09:54:43.505Z,5.41
2018-11-22T09:55:43.483Z,5.43
2018-11-22T09:56:43.487Z,5.43
2018-11-22T09:57:43.453Z,5.37
2018-11-22T09:58:43.458Z,5.47
2018-11-22T09:59:43.513Z,5.46
2018-11-22T10:06:23.687Z,5.46
2018-11-22T10:07:23.694Z,5.51
2018-11-22T10:08:23.805Z,5.51
2018-11-22T10:09:24.138Z,5.52
2018-11-22T10:10:23.611Z,5.58
2018-11-22T10:11:23.723Z,5.49
2018-11-22T10:12:23.799Z,5.55
2018-11-22T10:13:23.736Z,5.56
2018-11-22T10:14:23.638Z,5.72
2018-11-22T10:15:23.748Z,5.67
2018-11-22T10:16:23.687Z,5.59
2018-11-22T10:17:25.263Z,5.64
2018-11-22T10:18:23.687Z,5.58
2018-11-22T10:19:23.672Z,5.59
2018-11-22T10:20:23.680Z,5.58
2018-11-22T10:21:23.690Z,5.52
2018-11-22T10:22:23.733Z,5.59
2018-11-22T10:23:23.630Z,5.58
2018-11-22T10:24:23.914Z,5.62
2018-11-22T10:25:23.670Z,5.7
2018-11-22T10:26:23.682Z,5.62
2018-11-22T10:27:23.686Z,5.72
2018-11-22T10:28:23.865Z,5.65
2018-11-22T10:29:23.911Z,5.65
2018-11-22T10:30:23.977Z,5.69
2018-11-22T10:31:23.730Z,5.7
2018-11-22T10:32:23.692Z,5.8
2018-11-22T10:33:23.694Z,5.79
2018-11-22T10:34:23.710Z,5.77
2018-11-22T10:35:23.946Z,5.72
2018-11-22T10:36:23.679Z,5.77
2018-11-22T10:37:23.649Z,5.77
2018-11-22T10:38:24.029Z,5.87
2018-11-22T10:39:22.164Z,5.79
2018-11-22T10:40:23.706Z,5.74
2018-11-22T10:41:23.718Z,5.73
2018-11-22T10:42:23.737Z,5.84
2018-11-22T10:43:23.696Z,5.72
2018-11-22T10:44:23.716Z,5.88
2018-11-22T10:45:23.668Z,6.1
2018-11-22T10:46:23.708Z,6.47
2018-11-22T10:47:23.682Z,6.25
2018-11-22T10:48:23.725Z,6.16
2018-11-22T10:49:23.710Z,6.22
2018-11-22T10:50:23.704Z,6.19
2018-11-22T10:51:23.687Z,6.19
2018-11-22T10:52:23.683Z,6.13
2018-11-22T10:53:23.756Z,6.09
2018-11-22T10:54:23.696Z,6.09
2018-11-22T10:55:23.701Z,5.99
2018-11-22T10:56:23.747Z,6.02
2018-11-22T10:57:23.794Z,6.06
2018-11-22T10:58:23.684Z,6.01
2018-11-22T10:59:23.688Z,6.06
2018-11-22T11:00:23.703Z,6.01
2018-11-22T11:01:23.705Z,5.87
2018-11-22T11:02:24.702Z,5.83
2018-11-22T11:03:23.800Z,5.83
2018-11-22T11:04:23.767Z,5.83
2018-11-22T11:05:23.732Z,5.97
2018-11-22T11:06:23.737Z,5.91
2018-11-22T11:07:23.745Z,5.98
2018-11-22T11:08:23.684Z,5.99
2018-11-22T11:09:23.729Z,5.99
2018-11-22T11:10:23.700Z,6.06
2018-11-22T11:11:23.706Z,5.95
2018-11-22T11:12:28.428Z,6.05
2018-11-22T11:13:23.755Z,6.09
2018-11-22T11:14:23.730Z,6.02
2018-11-22T11:15:23.838Z,6.01
2018-11-22T11:16:23.670Z,5.99
2018-11-22T11:17:23.713Z,6.06
2018-11-22T11:18:23.718Z,6.05
2018-11-22T11:19:23.720Z,6.12
2018-11-22T11:20:23.732Z,6.1
2018-11-22T11:21:23.739Z,6.75
2018-11-22T11:22:23.759Z,6.96
2018-11-22T11:23:23.790Z,6.96
2018-11-22T11:24:23.954Z,6.96
2018-11-22T11:25:23.729Z,6.92
2018-11-22T11:26:23.967Z,6.85
2018-11-22T11:27:23.743Z,6.72
2018-11-22T11:28:23.748Z,6.7
2018-11-22T11:29:23.757Z,6.56
2018-11-22T11:30:23.729Z,6.57
2018-11-22T11:31:23.769Z,6.6
2018-11-22T11:32:23.746Z,6.6
2018-11-22T11:33:23.680Z,6.52
2018-11-22T11:34:23.718Z,6.5
2018-11-22T11:35:23.762Z,6.56
2018-11-22T11:36:23.838Z,6.56
2018-11-22T11:37:23.739Z,6.54
2018-11-22T11:38:23.747Z,6.54
2018-11-22T11:39:23.753Z,6.53
2018-11-22T11:40:23.757Z,6.56
2018-11-22T11:41:23.733Z,6.59
2018-11-22T11:42:23.771Z,6.62
2018-11-22T11:43:23.745Z,6.75
2018-11-22T11:44:23.822Z,6.57
2018-11-22T11:45:23.794Z,6.7
2018-11-22T11:46:23.765Z,6.57
2018-11-22T11:47:23.773Z,6.56
2018-11-22T11:48:23.748Z,6.62
2018-11-22T11:49:23.787Z,6.53
2018-11-22T11:50:23.824Z,6.54
2018-11-22T11:51:23.830Z,6.5
2018-11-22T11:52:23.735Z,6.68
2018-11-22T11:53:43.864Z,6.67
2018-11-22T11:54:23.751Z,6.57
2018-11-22T11:55:24.062Z,6.56
2018-11-22T11:56:23.883Z,6.57
2018-11-22T11:57:23.766Z,6.49
2018-11-22T11:58:23.916Z,6.52
2018-11-22T12:00:28.297Z,6.57
2018-11-22T12:00:40.447Z,6.56
2018-11-22T12:01:41.829Z,6.6
2018-11-22T12:02:40.503Z,6.56
2018-11-22T12:03:40.467Z,6.62
2018-11-22T12:04:40.405Z,6.46
2018-11-22T12:05:40.346Z,6.56
2018-11-22T12:06:40.330Z,6.49
2018-11-22T12:07:40.422Z,6.49
2018-11-22T12:08:40.429Z,6.47
2018-11-22T12:09:40.402Z,6.53
2018-11-22T12:10:40.378Z,6.5
2018-11-22T12:11:40.386Z,6.47
2018-11-22T12:12:40.393Z,6.46
2018-11-22T12:16:52.259Z,6.56
2018-11-22T12:17:52.267Z,6.54
2018-11-22T12:18:52.240Z,6.52
2018-11-22T12:19:53.269Z,6.54
2018-11-22T12:20:52.223Z,6.56
2018-11-22T12:21:52.258Z,6.52
2018-11-22T12:22:52.233Z,6.53
2018-11-22T12:23:52.240Z,6.59
2018-11-22T12:24:52.315Z,6.54
2018-11-22T12:25:52.359Z,6.56
2018-11-22T12:26:52.294Z,6.5
2018-11-22T12:27:52.332Z,6.52
2018-11-22T12:28:52.280Z,6.53
2018-11-22T12:29:52.288Z,6.53
2018-11-22T12:30:52.319Z,6.54
2018-11-22T12:31:53.356Z,6.53
2018-11-22T12:32:52.265Z,6.35
2018-11-22T12:33:52.268Z,6.5
2018-11-22T12:34:52.347Z,6.35
2018-11-22T12:35:52.283Z,6.35
2018-11-22T12:36:52.390Z,6.34
2018-11-22T12:37:52.295Z,6.49
2018-11-22T12:38:52.307Z,6.46
2018-11-22T12:39:52.245Z,6.36
2018-11-22T12:40:52.315Z,6.47
2018-11-22T12:41:52.328Z,6.5
2018-11-22T12:42:52.329Z,6.6
2018-11-22T12:43:52.302Z,6.5
2018-11-22T12:44:52.277Z,6.47
2018-11-22T12:45:52.287Z,6.46
2018-11-22T12:46:52.290Z,6.52
2018-11-22T12:47:52.302Z,6.5
2018-11-22T12:48:52.303Z,6.57
2018-11-22T12:49:52.269Z,6.52
2018-11-22T12:50:52.276Z,6.44
2018-11-22T12:51:52.272Z,6.36
2018-11-22T12:52:52.298Z,6.38
2018-11-22T12:53:52.296Z,6.47
2018-11-22T12:54:52.276Z,6.44
2018-11-22T12:55:52.280Z,6.43
2018-11-22T12:56:52.286Z,6.43
2018-11-22T12:57:52.366Z,6.36
2018-11-22T12:58:52.452Z,6.34
2018-11-22T12:59:52.345Z,6.38
2018-11-22T13:00:52.346Z,6.41
2018-11-22T13:01:52.312Z,6.44
2018-11-22T13:02:52.296Z,6.46
2018-11-22T13:03:52.338Z,6.31
2018-11-22T13:04:52.338Z,6.46
2018-11-22T13:05:52.317Z,6.22
2018-11-22T13:06:52.281Z,6.43
2018-11-22T13:07:52.329Z,6.38
2018-11-22T13:08:52.342Z,6.49
2018-11-22T13:09:52.302Z,6.5
2018-11-22T13:10:52.321Z,6.35
2018-11-22T13:11:53.442Z,6.53
2018-11-22T13:12:52.321Z,6.56
2018-11-22T13:13:52.326Z,6.54
2018-11-22T13:14:52.334Z,6.52
2018-11-22T13:15:52.278Z,6.53
2018-11-22T13:16:52.285Z,6.56
2018-11-22T13:17:52.368Z,6.43
2018-11-22T13:18:53.288Z,6.52
2018-11-22T13:19:52.304Z,6.53
2018-11-22T13:20:52.620Z,6.53
2018-11-22T13:21:52.321Z,6.49
2018-11-22T13:22:52.355Z,6.57
2018-11-22T13:23:52.362Z,6.49
2018-11-22T13:24:52.337Z,6.62
2018-11-22T13:25:52.303Z,6.67
2018-11-22T13:26:53.000Z,6.72
2018-11-22T13:27:52.357Z,6.62
2018-11-22T13:28:52.367Z,6.57
2018-11-22T13:29:52.332Z,6.64
2018-11-22T13:30:52.377Z,6.67
2018-11-22T13:31:52.344Z,6.54
2018-11-22T13:32:52.324Z,6.53
2018-11-22T13:33:52.398Z,6.6
2018-11-22T13:34:52.407Z,6.65
2018-11-22T13:35:52.328Z,6.62
2018-11-22T13:36:52.318Z,6.68
2018-11-22T13:37:52.352Z,6.59
2018-11-22T13:38:52.336Z,6.6
2018-11-22T13:39:52.364Z,6.77
2018-11-22T13:40:52.340Z,6.74
2018-11-22T13:41:52.347Z,6.78
2018-11-22T13:42:52.313Z,6.71
2018-11-22T13:43:52.331Z,6.8
2018-11-22T13:44:52.327Z,6.77
2018-11-22T13:45:52.333Z,6.72
2018-11-22T13:46:52.528Z,6.77
2018-11-22T13:47:52.453Z,6.64
2018-11-22T13:48:52.353Z,6.68
2018-11-22T13:49:52.362Z,6.77
2018-11-22T13:50:58.833Z,6.71
2018-11-22T13:51:52.551Z,6.75
2018-11-22T13:52:52.354Z,6.71
2018-11-22T13:53:52.390Z,6.72
2018-11-22T13:54:52.320Z,6.53
2018-11-22T13:55:52.372Z,6.6
2018-11-22T13:56:52.344Z,6.6
2018-11-22T13:57:52.415Z,6.54
2018-11-22T13:58:52.390Z,6.6
2018-11-22T13:59:58.152Z,6.57
2018-11-22T14:00:52.351Z,6.52
2018-11-22T14:01:52.340Z,6.57
2018-11-22T14:02:52.349Z,6.6
2018-11-22T14:03:52.349Z,6.57
2018-11-22T14:04:52.373Z,6.54
2018-11-22T14:05:52.570Z,6.6
2018-11-22T14:06:52.341Z,6.46
2018-11-22T14:07:52.383Z,6.38
2018-11-22T14:08:52.397Z,6.5
2018-11-22T14:09:52.409Z,6.44
2018-11-22T14:10:52.778Z,6.53
2018-11-22T14:11:52.430Z,6.54